createdAt,value
2016-12-24T00:00:58.454Z,7.8
2016-12-24T00:01:58.689Z,7.67
2016-12-24T00:02:58.392Z,7.76
2016-12-24T00:03:58.720Z,7.72
2016-12-24T00:04:58.740Z,7.76
2016-12-24T00:05:58.431Z,7.76
2016-12-24T00:06:59.076Z,7.72
2016-12-24T00:07:58.795Z,7.8
2016-12-24T00:08:58.807Z,7.72
2016-12-24T00:09:58.502Z,7.77
2016-12-24T00:10:58.606Z,7.85
2016-12-24T00:11:59.145Z,7.77
2016-12-24T00:12:58.532Z,7.75
2016-12-24T00:13:58.860Z,7.76
2016-12-24T00:14:59.192Z,7.76
2016-12-24T00:15:58.891Z,7.75
2016-12-24T00:16:58.590Z,7.8
2016-12-24T00:17:58.920Z,7.83
2016-12-24T00:18:58.937Z,7.85
2016-12-24T00:19:58.967Z,7.77
2016-12-24T00:20:58.655Z,7.87
2016-12-24T00:21:58.981Z,7.85
2016-12-24T00:22:59.312Z,7.83
2016-12-24T00:23:59.029Z,7.9
2016-12-24T00:24:59.341Z,7.9
2016-12-24T00:25:59.162Z,7.87
2016-12-24T00:26:59.058Z,7.94
2016-12-24T00:27:59.074Z,7.82
2016-12-24T00:28:59.085Z,7.83
2016-12-24T00:29:59.101Z,7.87
2016-12-24T00:30:59.431Z,7.8
2016-12-24T00:31:59.130Z,7.93
2016-12-24T00:32:59.462Z,7.85
2016-12-24T00:33:59.476Z,7.94
2016-12-24T00:34:59.185Z,7.83
2016-12-24T00:35:59.288Z,7.94
2016-12-24T00:36:59.203Z,7.88
2016-12-24T00:37:59.222Z,7.85
2016-12-24T00:38:58.919Z,7.87
2016-12-24T00:39:59.250Z,7.85
2016-12-24T00:40:59.580Z,7.79
2016-12-24T00:41:59.283Z,7.82
2016-12-24T00:42:59.610Z,7.76
2016-12-24T00:43:59.309Z,7.77
2016-12-24T00:44:59.012Z,7.79
2016-12-24T00:45:59.437Z,7.75
2016-12-24T00:46:59.358Z,7.63
2016-12-24T00:47:59.365Z,7.72
2016-12-24T00:48:59.385Z,7.8
2016-12-24T00:49:59.394Z,7.72
2016-12-24T00:50:59.418Z,7.76
2016-12-24T00:51:59.428Z,7.75
2016-12-24T00:52:59.446Z,7.75
2016-12-24T00:53:59.141Z,7.77
2016-12-24T00:54:59.158Z,7.77
2016-12-24T00:55:59.171Z,7.77
2016-12-24T00:56:59.516Z,7.82
2016-12-24T00:57:59.516Z,7.79
2016-12-24T00:58:59.848Z,7.82
2016-12-24T00:59:59.570Z,7.79
2016-12-24T01:00:59.663Z,7.75
2016-12-24T01:01:59.895Z,7.88
2016-12-24T01:02:59.909Z,7.8
2016-12-24T01:03:59.927Z,7.82
2016-12-24T01:04:59.306Z,7.75
2016-12-24T01:05:59.950Z,7.75
2016-12-24T01:06:59.337Z,7.79
2016-12-24T01:07:59.666Z,7.75
2016-12-24T01:08:59.682Z,7.83
2016-12-24T01:09:59.694Z,7.76
2016-12-24T01:10:59.729Z,7.73
2016-12-24T01:11:59.740Z,7.7
2016-12-24T01:12:59.770Z,7.66
2016-12-24T01:14:00.071Z,7.61
2016-12-24T01:14:59.792Z,7.63
2016-12-24T01:15:59.884Z,7.58
2016-12-24T01:16:59.499Z,7.56
2016-12-24T01:17:59.499Z,7.58
2016-12-24T01:19:00.151Z,7.57
2016-12-24T01:19:59.845Z,7.53
2016-12-24T01:20:59.860Z,7.54
2016-12-24T01:21:59.874Z,7.47
2016-12-24T01:22:59.887Z,7.47
2016-12-24T01:23:59.908Z,7.57
2016-12-24T01:24:59.925Z,7.5
2016-12-24T01:26:00.254Z,7.54
2016-12-24T01:27:00.262Z,7.47
2016-12-24T01:27:59.963Z,7.47
2016-12-24T01:28:59.990Z,7.45
2016-12-24T01:30:00.019Z,7.43
2016-12-24T01:31:00.006Z,7.38
2016-12-24T01:32:00.033Z,7.36
2016-12-24T01:33:00.420Z,7.5
2016-12-24T01:34:00.057Z,7.36
2016-12-24T01:35:00.169Z,7.4
2016-12-24T01:36:00.165Z,7.4
2016-12-24T01:37:00.496Z,7.42
2016-12-24T01:38:00.113Z,7.45
2016-12-24T01:39:00.128Z,7.35
2016-12-24T01:40:00.590Z,7.45
2016-12-24T01:40:59.871Z,7.47
2016-12-24T01:42:00.172Z,7.48
2016-12-24T01:42:59.872Z,7.56
2016-12-24T01:43:59.888Z,7.7
2016-12-24T01:45:00.214Z,7.66
2016-12-24T01:46:00.233Z,7.66
2016-12-24T01:46:59.931Z,7.69
2016-12-24T01:48:00.582Z,7.76
2016-12-24T01:49:00.275Z,7.77
2016-12-24T01:50:00.173Z,7.63
2016-12-24T01:51:00.305Z,7.57
2016-12-24T01:52:00.368Z,7.61
2016-12-24T01:53:00.334Z,7.61
2016-12-24T01:54:00.350Z,7.61
2016-12-24T01:55:00.685Z,7.69
2016-12-24T01:56:00.381Z,7.63
2016-12-24T01:57:00.080Z,7.75
2016-12-24T01:58:00.741Z,7.73
2016-12-24T01:59:00.432Z,7.75
2016-12-24T02:00:00.754Z,7.76
2016-12-24T02:01:00.462Z,7.77
2016-12-24T02:02:00.470Z,7.75
2016-12-24T02:03:00.801Z,7.82
2016-12-24T02:04:00.813Z,7.85
2016-12-24T02:05:00.513Z,7.8
2016-12-24T02:06:00.844Z,7.8
2016-12-24T02:07:00.540Z,7.87
2016-12-24T02:08:00.560Z,7.82
2016-12-24T02:09:00.576Z,7.95
2016-12-24T02:10:00.273Z,7.94
2016-12-24T02:11:00.285Z,7.94
2016-12-24T02:12:00.622Z,7.88
2016-12-24T02:13:00.322Z,7.95
2016-12-24T02:14:00.649Z,7.97
2016-12-24T02:15:00.664Z,7.93
2016-12-24T02:16:00.679Z,7.93
2016-12-24T02:17:01.009Z,7.88
2016-12-24T02:18:00.391Z,7.97
2016-12-24T02:19:01.062Z,7.9
2016-12-24T02:20:00.741Z,8.03
2016-12-24T02:21:00.755Z,7.95
2016-12-24T02:22:00.771Z,8.06
2016-12-24T02:23:00.474Z,8
2016-12-24T02:24:00.481Z,8.03
2016-12-24T02:25:00.813Z,7.98
2016-12-24T02:26:00.514Z,7.94
2016-12-24T02:27:01.163Z,7.94
2016-12-24T02:28:00.859Z,7.97
2016-12-24T02:29:00.877Z,7.94
2016-12-24T02:30:00.887Z,7.94
2016-12-24T02:31:00.902Z,7.85
2016-12-24T02:32:00.972Z,7.97
2016-12-24T02:33:00.933Z,7.88
2016-12-24T02:34:00.987Z,7.9
2016-12-24T02:35:00.968Z,7.91
2016-12-24T02:36:00.986Z,7.9
2016-12-24T02:37:00.994Z,8.01
2016-12-24T02:38:01.010Z,7.98
2016-12-24T02:39:00.709Z,7.95
2016-12-24T02:40:01.037Z,7.94
2016-12-24T02:41:01.061Z,8.06
2016-12-24T02:42:01.090Z,7.95
2016-12-24T02:43:01.405Z,8.03
2016-12-24T02:44:00.797Z,8.03
2016-12-24T02:45:01.120Z,8.03
2016-12-24T02:46:01.146Z,8.01
2016-12-24T02:47:01.146Z,7.97
2016-12-24T02:48:00.850Z,8.08
2016-12-24T02:49:00.858Z,8.08
2016-12-24T02:50:01.512Z,8.06
2016-12-24T02:51:00.895Z,8.13
2016-12-24T02:52:00.906Z,8.09
2016-12-24T02:53:01.246Z,8.1
2016-12-24T02:54:00.938Z,8.2
2016-12-24T02:55:01.585Z,8.15
2016-12-24T02:56:00.970Z,8.13
2016-12-24T02:57:01.629Z,8.13
2016-12-24T02:58:01.631Z,8.18
2016-12-24T02:59:01.644Z,8.12
2016-12-24T03:00:01.384Z,8.15
2016-12-24T03:01:01.699Z,8.13
2016-12-24T03:02:01.378Z,8.18
2016-12-24T03:03:01.389Z,8.18
2016-12-24T03:04:01.095Z,8.23
2016-12-24T03:05:01.101Z,8.28
2016-12-24T03:06:01.449Z,8.27
2016-12-24T03:07:01.768Z,8.26
2016-12-24T03:08:01.493Z,8.27
2016-12-24T03:09:01.798Z,8.27
2016-12-24T03:10:01.496Z,8.24
2016-12-24T03:11:01.519Z,8.18
2016-12-24T03:12:01.529Z,8.15
2016-12-24T03:13:01.541Z,8.2
2016-12-24T03:14:01.247Z,8.16
2016-12-24T03:15:01.572Z,8.19
2016-12-24T03:16:01.902Z,8.24
2016-12-24T03:17:01.917Z,8.2
2016-12-24T03:18:01.624Z,8.24
2016-12-24T03:19:01.634Z,8.2
2016-12-24T03:20:01.968Z,8.26
2016-12-24T03:21:01.347Z,8.28
2016-12-24T03:22:01.681Z,8.28
2016-12-24T03:23:02.014Z,8.26
2016-12-24T03:24:01.712Z,8.26
2016-12-24T03:25:02.050Z,8.24
2016-12-24T03:26:01.745Z,8.28
2016-12-24T03:27:01.758Z,8.2
2016-12-24T03:28:01.776Z,8.26
2016-12-24T03:29:01.786Z,8.2
2016-12-24T03:30:02.121Z,8.15
2016-12-24T03:31:02.133Z,8.19
2016-12-24T03:32:02.148Z,8.13
2016-12-24T03:33:01.853Z,8.18
2016-12-24T03:34:01.862Z,8.15
2016-12-24T03:35:01.597Z,8.16
2016-12-24T03:36:02.208Z,8.19
2016-12-24T03:37:01.597Z,8.15
2016-12-24T03:38:01.609Z,8.13
2016-12-24T03:39:02.261Z,8.16
2016-12-24T03:40:02.275Z,8.16
2016-12-24T03:41:01.655Z,8.15
2016-12-24T03:42:01.982Z,8.1
2016-12-24T03:43:02.000Z,8.09
2016-12-24T03:44:02.027Z,8.16
2016-12-24T03:45:02.039Z,8.2
2016-12-24T03:46:02.387Z,8.13
2016-12-24T03:47:02.061Z,8.12
2016-12-24T03:48:02.076Z,8.1
2016-12-24T03:49:01.776Z,8.18
2016-12-24T03:50:02.116Z,8.15
2016-12-24T03:51:02.138Z,8.15
2016-12-24T03:52:02.149Z,8.12
2016-12-24T03:53:01.840Z,8.08
2016-12-24T03:54:01.879Z,8.18
2016-12-24T03:55:02.201Z,8.16
2016-12-24T03:56:02.227Z,8.12
2016-12-24T03:57:02.215Z,8.12
2016-12-24T03:58:02.228Z,8.12
2016-12-24T03:59:02.249Z,8.09
2016-12-24T04:00:02.261Z,8.09
2016-12-24T04:01:02.278Z,8.05
2016-12-24T04:02:02.290Z,8.03
2016-12-24T04:03:02.627Z,8.12
2016-12-24T04:04:02.323Z,8.03
2016-12-24T04:05:02.341Z,7.95
2016-12-24T04:06:02.355Z,8.05
2016-12-24T04:07:02.373Z,8.01
2016-12-24T04:08:02.380Z,8.1
2016-12-24T04:09:02.400Z,8.08
2016-12-24T04:10:02.424Z,8.06
2016-12-24T04:11:02.438Z,8.03
2016-12-24T04:12:02.132Z,8.08
2016-12-24T04:13:02.460Z,7.98
2016-12-24T04:14:02.159Z,8.05
2016-12-24T04:15:02.494Z,7.9
2016-12-24T04:16:02.503Z,7.98
2016-12-24T04:17:02.208Z,7.9
2016-12-24T04:18:02.533Z,7.87
2016-12-24T04:19:02.863Z,7.79
2016-12-24T04:20:02.563Z,7.88
2016-12-24T04:21:02.581Z,7.94
2016-12-24T04:22:02.594Z,7.94
2016-12-24T04:23:02.623Z,7.95
2016-12-24T04:24:02.628Z,7.97
2016-12-24T04:25:02.331Z,8.05
2016-12-24T04:26:02.656Z,8.05
2016-12-24T04:27:02.987Z,8.1
2016-12-24T04:28:02.373Z,8.16
2016-12-24T04:29:02.723Z,8.08
2016-12-24T04:30:02.718Z,8.1
2016-12-24T04:31:02.733Z,8.18
2016-12-24T04:32:02.756Z,8.16
2016-12-24T04:33:02.785Z,8.16
2016-12-24T04:34:03.094Z,8.16
2016-12-24T04:35:02.791Z,8.12
2016-12-24T04:36:02.812Z,8.13
2016-12-24T04:37:02.825Z,8.13
2016-12-24T04:38:03.157Z,8.18
2016-12-24T04:39:03.169Z,8.15
2016-12-24T04:40:02.875Z,8.13
2016-12-24T04:41:02.882Z,8.19
2016-12-24T04:42:02.905Z,8.16
2016-12-24T04:43:02.919Z,8.1
2016-12-24T04:44:03.250Z,8.09
2016-12-24T04:45:02.628Z,8.12
2016-12-24T04:46:03.282Z,8.12
2016-12-24T04:47:02.663Z,8.03
2016-12-24T04:48:03.018Z,8.08
2016-12-24T04:49:02.693Z,8.16
2016-12-24T04:50:03.024Z,8.1
2016-12-24T04:51:03.038Z,8.08
2016-12-24T04:52:03.052Z,8.01
2016-12-24T04:53:02.757Z,8.15
2016-12-24T04:54:03.082Z,8.15
2016-12-24T04:55:03.102Z,8.13
2016-12-24T04:56:02.802Z,8.2
2016-12-24T04:57:03.130Z,8.08
2016-12-24T04:58:03.460Z,8.1
2016-12-24T04:59:03.156Z,8.15
2016-12-24T05:00:02.864Z,8.15
2016-12-24T05:01:02.876Z,8.12
2016-12-24T05:02:02.892Z,8.15
2016-12-24T05:03:02.907Z,8.16
2016-12-24T05:04:03.250Z,8.26
2016-12-24T05:05:03.261Z,8.2
2016-12-24T05:06:03.266Z,8.24
2016-12-24T05:07:03.595Z,8.26
2016-12-24T05:08:03.312Z,8.31
2016-12-24T05:09:03.628Z,8.24
2016-12-24T05:10:03.023Z,8.34
2016-12-24T05:11:03.660Z,8.36
2016-12-24T05:12:03.675Z,8.44
2016-12-24T05:13:03.372Z,8.36
2016-12-24T05:14:03.387Z,8.38
2016-12-24T05:15:03.091Z,8.48
2016-12-24T05:16:03.422Z,8.49
2016-12-24T05:17:03.746Z,8.48
2016-12-24T05:18:03.450Z,8.48
2016-12-24T05:19:03.473Z,8.55
2016-12-24T05:20:03.165Z,8.48
2016-12-24T05:21:03.495Z,8.48
2016-12-24T05:22:03.850Z,8.6
2016-12-24T05:23:03.535Z,8.64
2016-12-24T05:24:03.862Z,8.64
2016-12-24T05:25:03.246Z,8.67
2016-12-24T05:26:03.264Z,8.6
2016-12-24T05:27:03.908Z,8.67
2016-12-24T05:28:03.607Z,8.7
2016-12-24T05:29:03.304Z,8.71
2016-12-24T05:30:03.632Z,8.71
2016-12-24T05:31:03.650Z,8.64
2016-12-24T05:32:03.666Z,8.73
2016-12-24T05:33:03.995Z,8.66
2016-12-24T05:34:04.013Z,8.69
2016-12-24T05:35:03.712Z,8.69
2016-12-24T05:36:03.729Z,8.73
2016-12-24T05:37:03.747Z,8.64
2016-12-24T05:38:03.447Z,8.74
2016-12-24T05:39:03.781Z,8.74
2016-12-24T05:40:03.477Z,8.64
2016-12-24T05:41:03.488Z,8.74
2016-12-24T05:42:04.135Z,8.76
2016-12-24T05:43:03.517Z,8.69
2016-12-24T05:44:04.173Z,8.7
2016-12-24T05:45:03.572Z,8.67
2016-12-24T05:46:03.901Z,8.76
2016-12-24T05:47:03.897Z,8.71
2016-12-24T05:48:03.911Z,8.78
2016-12-24T05:49:04.244Z,8.81
2016-12-24T05:50:03.631Z,8.76
2016-12-24T05:51:03.962Z,8.78
2016-12-24T05:52:04.320Z,8.76
2016-12-24T05:53:03.990Z,8.74
2016-12-24T05:54:04.005Z,8.78
2016-12-24T05:55:03.709Z,8.74
2016-12-24T05:56:04.353Z,8.84
2016-12-24T05:57:04.370Z,8.87
2016-12-24T05:58:04.387Z,8.78
2016-12-24T05:59:04.088Z,8.82
2016-12-24T06:00:03.785Z,8.79
2016-12-24T06:01:04.430Z,8.81
2016-12-24T06:02:03.816Z,8.73
2016-12-24T06:03:04.146Z,8.69
2016-12-24T06:04:04.184Z,8.7
2016-12-24T06:05:04.495Z,8.71
2016-12-24T06:06:04.193Z,8.64
2016-12-24T06:07:03.894Z,8.7
2016-12-24T06:08:04.221Z,8.58
2016-12-24T06:09:04.562Z,8.7
2016-12-24T06:10:03.939Z,8.69
2016-12-24T06:11:04.587Z,8.6
2016-12-24T06:12:03.966Z,8.48
2016-12-24T06:13:04.305Z,8.48
2016-12-24T06:14:04.313Z,8.49
2016-12-24T06:15:04.646Z,8.49
2016-12-24T06:16:04.348Z,8.37
2016-12-24T06:17:04.685Z,8.31
2016-12-24T06:18:04.064Z,8.19
2016-12-24T06:19:04.075Z,8.15
2016-12-24T06:20:04.093Z,8.2
2016-12-24T06:21:04.748Z,8.26
2016-12-24T06:22:04.758Z,8.27
2016-12-24T06:23:04.773Z,8.28
2016-12-24T06:24:04.791Z,8.2
2016-12-24T06:25:04.802Z,8.23
2016-12-24T06:26:04.505Z,8.23
2016-12-24T06:27:04.516Z,8.16
2016-12-24T06:28:04.217Z,8.15
2016-12-24T06:29:04.229Z,8.06
2016-12-24T06:30:04.563Z,8.03
2016-12-24T06:31:04.576Z,8.06
2016-12-24T06:32:04.605Z,8.06
2016-12-24T06:33:04.297Z,8
2016-12-24T06:34:04.623Z,8.01
2016-12-24T06:35:04.693Z,8.06
2016-12-24T06:36:04.339Z,8.15
2016-12-24T06:37:04.667Z,8.03
2016-12-24T06:38:04.373Z,8.03
2016-12-24T06:39:05.024Z,7.97
2016-12-24T06:40:05.033Z,7.98
2016-12-24T06:41:04.725Z,7.93
2016-12-24T06:42:05.060Z,7.98
2016-12-24T06:43:04.772Z,7.97
2016-12-24T06:44:04.793Z,7.94
2016-12-24T06:45:04.483Z,7.93
2016-12-24T06:46:05.119Z,7.9
2016-12-24T06:47:04.817Z,7.75
2016-12-24T06:48:05.149Z,7.75
2016-12-24T06:49:04.848Z,7.82
2016-12-24T06:50:04.578Z,7.77
2016-12-24T06:51:04.896Z,7.91
2016-12-24T06:52:04.917Z,7.94
2016-12-24T06:53:04.916Z,7.93
2016-12-24T06:54:05.257Z,7.91
2016-12-24T06:55:04.946Z,7.91
2016-12-24T06:56:04.952Z,7.91
2016-12-24T06:57:04.968Z,7.94
2016-12-24T06:58:05.313Z,7.85
2016-12-24T06:59:05.010Z,7.91
2016-12-24T07:00:04.705Z,7.95
2016-12-24T07:01:05.100Z,7.87
2016-12-24T07:02:05.355Z,7.98
2016-12-24T07:03:04.741Z,7.88
2016-12-24T07:04:05.074Z,7.93
2016-12-24T07:05:05.089Z,7.91
2016-12-24T07:06:05.102Z,7.85
2016-12-24T07:07:04.809Z,7.79
2016-12-24T07:08:05.173Z,7.83
2016-12-24T07:09:04.828Z,7.87
2016-12-24T07:10:04.846Z,7.88
2016-12-24T07:11:05.173Z,7.85
2016-12-24T07:12:05.534Z,7.93
2016-12-24T07:13:04.888Z,7.95
2016-12-24T07:14:04.900Z,8
2016-12-24T07:15:05.233Z,7.98
2016-12-24T07:16:04.934Z,7.98
2016-12-24T07:17:05.267Z,7.97
2016-12-24T07:18:05.275Z,8.05
2016-12-24T07:19:05.294Z,7.91
2016-12-24T07:20:04.992Z,7.97
2016-12-24T07:21:05.641Z,7.97
2016-12-24T07:22:05.684Z,7.9
2016-12-24T07:23:05.355Z,7.88
2016-12-24T07:24:05.373Z,7.83
2016-12-24T07:25:05.064Z,7.97
2016-12-24T07:26:05.724Z,8.03
2016-12-24T07:27:05.415Z,8.15
2016-12-24T07:28:05.429Z,8.08
2016-12-24T07:29:05.445Z,8
2016-12-24T07:30:05.474Z,8.12
2016-12-24T07:31:05.484Z,8.08
2016-12-24T07:32:05.803Z,8.1
2016-12-24T07:33:05.501Z,8.09
2016-12-24T07:34:05.535Z,8.16
2016-12-24T07:35:05.535Z,8.1
2016-12-24T07:36:05.573Z,8.1
2016-12-24T07:37:05.250Z,8.05
2016-12-24T07:38:05.263Z,8.12
2016-12-24T07:39:05.911Z,8.16
2016-12-24T07:40:05.611Z,8.15
2016-12-24T07:41:05.359Z,8.13
2016-12-24T07:42:05.643Z,8.18
2016-12-24T07:43:05.672Z,8.2
2016-12-24T07:44:05.669Z,8.2
2016-12-24T07:45:05.681Z,8.26
2016-12-24T07:46:05.706Z,8.16
2016-12-24T07:47:05.397Z,8.1
2016-12-24T07:48:05.729Z,8.16
2016-12-24T07:49:05.760Z,8.19
2016-12-24T07:50:06.072Z,8.2
2016-12-24T07:51:05.777Z,8.24
2016-12-24T07:52:05.786Z,8.24
2016-12-24T07:53:05.802Z,8.16
2016-12-24T07:54:05.500Z,8.19
2016-12-24T07:55:05.839Z,8.13
2016-12-24T07:56:05.848Z,8.2
2016-12-24T07:57:05.864Z,8.26
2016-12-24T07:58:05.565Z,8.16
2016-12-24T07:59:05.896Z,8.23
2016-12-24T08:00:05.909Z,8.24
2016-12-24T08:01:05.923Z,8.3
2016-12-24T08:02:05.937Z,8.34
2016-12-24T08:03:06.268Z,8.26
2016-12-24T08:04:06.285Z,8.33
2016-12-24T08:05:06.299Z,8.41
2016-12-24T08:06:05.685Z,8.34
2016-12-24T08:07:06.329Z,8.33
2016-12-24T08:08:06.032Z,8.36
2016-12-24T08:09:06.358Z,8.41
2016-12-24T08:10:06.085Z,8.38
2016-12-24T08:11:06.391Z,8.34
2016-12-24T08:12:05.772Z,8.42
2016-12-24T08:13:06.107Z,8.34
2016-12-24T08:14:06.122Z,8.38
2016-12-24T08:15:06.141Z,8.37
2016-12-24T08:16:06.466Z,8.34
2016-12-24T08:17:06.168Z,8.38
2016-12-24T08:18:05.872Z,8.44
2016-12-24T08:19:06.197Z,8.33
2016-12-24T08:20:06.209Z,8.45
2016-12-24T08:21:05.911Z,8.34
2016-12-24T08:22:05.926Z,8.34
2016-12-24T08:23:05.941Z,8.44
2016-12-24T08:24:06.271Z,8.44
2016-12-24T08:25:06.306Z,8.52
2016-12-24T08:26:05.997Z,8.45
2016-12-24T08:27:06.321Z,8.48
2016-12-24T08:28:06.018Z,8.46
2016-12-24T08:29:06.348Z,8.45
2016-12-24T08:30:06.047Z,8.41
2016-12-24T08:31:06.379Z,8.37
2016-12-24T08:32:06.077Z,8.34
2016-12-24T08:33:06.411Z,8.41
2016-12-24T08:34:06.109Z,8.42
2016-12-24T08:35:06.138Z,8.34
2016-12-24T08:36:06.453Z,8.36
2016-12-24T08:37:06.156Z,8.42
2016-12-24T08:38:06.485Z,8.42
2016-12-24T08:39:06.502Z,8.44
2016-12-24T08:40:06.524Z,8.46
2016-12-24T08:41:06.532Z,8.49
2016-12-24T08:42:06.861Z,8.49
2016-12-24T08:43:06.579Z,8.44
2016-12-24T08:44:06.594Z,8.52
2016-12-24T08:45:06.591Z,8.7
2016-12-24T08:46:06.924Z,8.66
2016-12-24T08:47:06.631Z,8.67
2016-12-24T08:48:06.658Z,8.55
2016-12-24T08:49:06.353Z,8.63
2016-12-24T08:50:06.673Z,8.71
2016-12-24T08:51:06.685Z,8.67
2016-12-24T08:52:06.701Z,8.64
2016-12-24T08:53:06.423Z,8.71
2016-12-24T08:54:07.057Z,8.64
2016-12-24T08:55:07.063Z,8.7
2016-12-24T08:56:06.761Z,8.66
2016-12-24T08:57:06.777Z,8.64
2016-12-24T08:58:07.121Z,8.73
2016-12-24T08:59:07.124Z,8.73
2016-12-24T09:00:07.138Z,8.71
2016-12-24T09:01:07.182Z,8.76
2016-12-24T09:02:07.189Z,8.66
2016-12-24T09:03:06.565Z,8.76
2016-12-24T09:04:06.888Z,8.76
2016-12-24T09:05:07.216Z,8.81
2016-12-24T09:06:06.941Z,8.66
2016-12-24T09:07:06.963Z,8.74
2016-12-24T09:08:07.269Z,8.76
2016-12-24T09:09:06.648Z,8.78
2016-12-24T09:10:06.670Z,8.81
2016-12-24T09:11:07.000Z,8.79
2016-12-24T09:12:07.326Z,8.94
2016-12-24T09:13:07.034Z,8.94
2016-12-24T09:14:07.041Z,8.92
2016-12-24T09:15:07.375Z,8.97
2016-12-24T09:16:07.405Z,9.1
2016-12-24T09:17:06.777Z,9.18
2016-12-24T09:18:07.420Z,9.25
2016-12-24T09:19:07.117Z,9.22
2016-12-24T09:20:07.145Z,9.28
2016-12-24T09:21:06.837Z,9.4
2016-12-24T09:22:07.484Z,9.43
2016-12-24T09:23:06.874Z,9.41
2016-12-24T09:24:07.218Z,9.44
2016-12-24T09:25:07.544Z,9.51
2016-12-24T09:26:06.927Z,9.74
2016-12-24T09:27:07.250Z,9.83
2016-12-24T09:28:06.955Z,9.92
2016-12-24T09:29:07.599Z,9.87
2016-12-24T09:30:07.303Z,9.94
2016-12-24T09:31:07.444Z,9.89
2016-12-24T09:32:07.648Z,10.05
2016-12-24T09:33:07.663Z,10.13
2016-12-24T09:34:07.050Z,10.23
2016-12-24T09:35:07.066Z,10.26
2016-12-24T09:36:07.449Z,10.35
2016-12-24T09:37:07.100Z,10.41
2016-12-24T09:38:07.754Z,10.35
2016-12-24T09:39:07.133Z,10.41
2016-12-24T09:40:07.466Z,10.48
2016-12-24T09:41:07.533Z,10.42
2016-12-24T09:42:07.503Z,10.44
2016-12-24T09:43:07.196Z,10.53
2016-12-24T09:44:07.532Z,10.41
2016-12-24T09:45:07.546Z,10.34
2016-12-24T09:46:07.306Z,10.48
2016-12-24T09:47:07.265Z,10.54
2016-12-24T09:48:07.917Z,10.51
2016-12-24T09:49:07.299Z,10.51
2016-12-24T09:50:07.316Z,10.49
2016-12-24T09:51:07.382Z,10.51
2016-12-24T09:52:07.673Z,10.53
2016-12-24T09:53:07.374Z,10.48
2016-12-24T09:54:07.699Z,10.46
2016-12-24T09:55:07.721Z,10.4
2016-12-24T09:56:07.736Z,10.48
2016-12-24T09:57:07.436Z,10.53
2016-12-24T09:58:07.769Z,10.61
2016-12-24T09:59:07.795Z,10.69
2016-12-24T10:00:07.491Z,10.71
2016-12-24T10:01:07.876Z,10.68
2016-12-24T10:02:07.835Z,10.72
2016-12-24T10:03:07.856Z,10.82
2016-12-24T10:04:08.214Z,10.76
2016-12-24T10:05:07.891Z,10.76
2016-12-24T10:06:08.016Z,10.76
2016-12-24T10:07:07.606Z,10.79
2016-12-24T10:08:07.623Z,10.79
2016-12-24T10:09:07.986Z,10.82
2016-12-24T10:10:07.683Z,10.81
2016-12-24T10:11:07.676Z,10.76
2016-12-24T10:12:08.323Z,10.81
2016-12-24T10:13:08.032Z,10.71
2016-12-24T10:14:08.053Z,10.74
2016-12-24T10:15:07.747Z,10.72
2016-12-24T10:17:08.097Z,10.74
2016-12-24T10:18:08.113Z,10.78
2016-12-24T10:19:08.138Z,10.76
2016-12-24T10:20:08.466Z,10.81
2016-12-24T10:21:08.216Z,10.81
2016-12-24T10:22:08.183Z,10.87
2016-12-24T10:23:08.203Z,10.84
2016-12-24T10:24:08.217Z,10.87
2016-12-24T10:25:08.552Z,10.87
2016-12-24T10:26:08.303Z,10.93
2016-12-24T10:27:07.956Z,10.94
2016-12-24T10:28:08.288Z,10.97
2016-12-24T10:29:07.988Z,10.94
2016-12-24T10:30:08.328Z,10.94
2016-12-24T10:31:08.386Z,10.97
2016-12-24T10:32:08.672Z,11.1
2016-12-24T10:33:23.265Z,11.07
2016-12-24T10:34:08.077Z,10.96
2016-12-24T10:35:08.429Z,11.07
2016-12-24T10:36:08.426Z,11.1
2016-12-24T10:37:08.443Z,11.08
2016-12-24T10:38:08.794Z,11.02
2016-12-24T10:39:08.793Z,11.12
2016-12-24T10:40:08.499Z,11.15
2016-12-24T10:41:08.200Z,11.04
2016-12-24T10:42:08.218Z,11.17
2016-12-24T10:43:08.870Z,11.1
2016-12-24T10:44:08.564Z,11.05
2016-12-24T10:45:08.606Z,11.1
2016-12-24T10:46:08.437Z,11.23
2016-12-24T10:47:08.622Z,11.14
2016-12-24T10:48:08.326Z,11.12
2016-12-24T10:49:08.652Z,11.18
2016-12-24T10:50:08.995Z,11.1
2016-12-24T10:51:08.373Z,11.22
2016-12-24T10:52:09.033Z,11.1
2016-12-24T10:53:08.722Z,11.18
2016-12-24T10:54:08.742Z,11.27
2016-12-24T10:55:08.763Z,11.15
2016-12-24T10:56:08.778Z,11.17
2016-12-24T10:57:08.479Z,11.23
2016-12-24T10:58:08.497Z,11.27
2016-12-24T10:59:08.514Z,11.23
2016-12-24T11:00:08.846Z,11.35
2016-12-24T11:01:09.230Z,11.36
2016-12-24T11:02:09.195Z,11.4
2016-12-24T11:03:09.224Z,11.43
2016-12-24T11:04:08.917Z,11.36
2016-12-24T11:05:08.960Z,11.44
2016-12-24T11:06:08.635Z,11.48
2016-12-24T11:07:08.655Z,11.57
2016-12-24T11:08:08.989Z,11.52
2016-12-24T11:09:09.005Z,11.52
2016-12-24T11:10:08.708Z,11.54
2016-12-24T11:11:09.046Z,11.5
2016-12-24T11:12:09.061Z,11.52
2016-12-24T11:13:09.391Z,11.47
2016-12-24T11:14:08.778Z,11.5
2016-12-24T11:15:09.113Z,11.47
2016-12-24T11:16:09.445Z,11.62
2016-12-24T11:17:09.146Z,11.54
2016-12-24T11:18:09.165Z,11.55
2016-12-24T11:19:08.867Z,11.62
2016-12-24T11:20:09.521Z,11.68
2016-12-24T11:21:09.536Z,11.69
2016-12-24T11:22:09.236Z,11.59
2016-12-24T11:23:08.943Z,11.68
2016-12-24T11:24:09.588Z,11.7
2016-12-24T11:25:09.292Z,11.65
2016-12-24T11:26:09.024Z,11.65
2016-12-24T11:27:09.640Z,11.69
2016-12-24T11:28:09.029Z,11.72
2016-12-24T11:29:09.047Z,11.8
2016-12-24T11:30:09.396Z,11.77
2016-12-24T11:31:09.115Z,11.83
2016-12-24T11:32:09.731Z,11.83
2016-12-24T11:33:09.118Z,11.99
2016-12-24T11:34:09.133Z,12.02
2016-12-24T11:35:09.784Z,12.03
2016-12-24T11:36:09.797Z,12.1
2016-12-24T11:37:09.205Z,12.09
2016-12-24T11:38:09.530Z,12.06
2016-12-24T11:39:09.226Z,12.12
2016-12-24T11:40:09.559Z,12.06
2016-12-24T11:41:09.624Z,12.09
2016-12-24T11:42:09.595Z,12.12
2016-12-24T11:43:09.304Z,12.04
2016-12-24T11:44:09.316Z,12.02
2016-12-24T11:45:09.969Z,12.02
2016-12-24T11:46:09.405Z,11.97
2016-12-24T11:47:09.684Z,12.06
2016-12-24T11:48:09.810Z,12.02
2016-12-24T11:49:10.436Z,11.88
2016-12-24T11:50:09.443Z,11.83
2016-12-24T11:51:09.759Z,11.86
2016-12-24T11:52:10.087Z,11.73
2016-12-24T11:53:10.110Z,11.8
2016-12-24T11:54:09.509Z,11.78
2016-12-24T11:55:09.830Z,11.68
2016-12-24T11:56:09.585Z,11.78
2016-12-24T11:57:09.551Z,11.78
2016-12-24T11:58:10.199Z,11.75
2016-12-24T11:59:09.583Z,11.75
2016-12-24T12:00:09.927Z,11.7
2016-12-24T12:01:10.303Z,11.78
2016-12-24T12:02:09.957Z,11.81
2016-12-24T12:03:09.976Z,11.78
2016-12-24T12:04:09.676Z,11.75
2016-12-24T12:05:10.009Z,11.78
2016-12-24T12:06:10.033Z,11.77
2016-12-24T12:07:09.731Z,11.81
2016-12-24T12:08:10.064Z,11.8
2016-12-24T12:09:09.766Z,11.73
2016-12-24T12:10:10.109Z,11.87
2016-12-24T12:11:10.118Z,11.87
2016-12-24T12:12:10.454Z,11.86
2016-12-24T12:13:10.153Z,11.9
2016-12-24T12:14:09.861Z,11.83
2016-12-24T12:15:09.878Z,11.88
2016-12-24T12:16:09.894Z,11.86
2016-12-24T12:17:10.229Z,11.87
2016-12-24T12:18:09.929Z,11.84
2016-12-24T12:19:09.944Z,11.88
2016-12-24T12:20:09.967Z,11.88
2016-12-24T12:21:10.664Z,11.86
2016-12-24T12:22:10.631Z,11.91
2016-12-24T12:23:10.650Z,11.77
2016-12-24T12:24:10.357Z,11.9
2016-12-24T12:25:10.057Z,11.86
2016-12-24T12:26:10.399Z,12.02
2016-12-24T12:27:10.411Z,11.88
2016-12-24T12:28:10.118Z,11.91
2016-12-24T12:29:10.139Z,11.95
2016-12-24T12:30:10.464Z,11.91
2016-12-24T12:31:10.166Z,11.94
2016-12-24T12:32:10.813Z,12
2016-12-24T12:33:10.202Z,12
2016-12-24T12:34:10.538Z,12.1
2016-12-24T12:35:10.237Z,12.1
2016-12-24T12:36:10.571Z,12.24
2016-12-24T12:37:10.593Z,12.22
2016-12-24T12:38:10.300Z,12.18
2016-12-24T12:39:10.626Z,12.2
2016-12-24T12:40:10.329Z,12.27
2016-12-24T12:41:10.718Z,12.31
2016-12-24T12:42:10.365Z,12.32
2016-12-24T12:43:10.707Z,12.35
2016-12-24T12:44:10.725Z,12.31
2016-12-24T12:45:11.056Z,12.35
2016-12-24T12:46:10.751Z,12.4
2016-12-24T12:47:10.461Z,12.46
2016-12-24T12:49:10.845Z,12.42
2016-12-24T12:50:10.835Z,12.46
2016-12-24T12:51:10.846Z,12.31
2016-12-24T12:52:10.872Z,12.31
2016-12-24T12:53:10.884Z,12.25
2016-12-24T12:54:11.217Z,12.36
2016-12-24T12:55:10.923Z,12.37
2016-12-24T12:56:10.625Z,12.32
2016-12-24T12:57:11.275Z,12.4
2016-12-24T12:58:10.978Z,12.42
2016-12-24T12:59:11.005Z,12.46
2016-12-24T13:00:11.011Z,12.46
2016-12-24T13:01:10.721Z,12.49
2016-12-24T13:02:10.758Z,12.53
2016-12-24T13:03:11.072Z,12.4
2016-12-24T13:04:10.769Z,12.47
2016-12-24T13:05:10.791Z,12.36
2016-12-24T13:06:10.836Z,12.25
2016-12-24T13:07:10.841Z,12.21
2016-12-24T13:08:11.508Z,12.2
2016-12-24T13:09:11.176Z,12.27
2016-12-24T13:10:11.533Z,12.21
2016-12-24T13:11:11.533Z,12.29
2016-12-24T13:12:11.238Z,12.25
2016-12-24T13:13:11.252Z,12.2
2016-12-24T13:14:10.964Z,12.25
2016-12-24T13:15:11.291Z,12.24
2016-12-24T13:16:10.993Z,12.18
2016-12-24T13:17:11.019Z,12.2